METAR Data
IDs: Format: Raw Decoded Include TAF

Data at: 1824 UTC 06 Jul 2020

K2M2 061815Z AUTO 09005KT 10SM CLR 28/22 A3001 RMK A01
K2M2 061755Z AUTO VRB03KT 10SM CLR 28/23 A3002 RMK A01
K2M2 061735Z AUTO 07004KT 10SM CLR 27/23 A3002 RMK A01
K2M2 061715Z AUTO 00000KT 10SM FEW060 27/23 A3003 RMK A01
K2M2 061655Z AUTO VRB04KT 10SM BKN060 27/23 A3003 RMK A01
K2M2 061635Z AUTO 12003KT 10SM FEW060 27/23 A3003 RMK A01
K2M2 061615Z AUTO 12004KT 10SM CLR 27/22 A3003 RMK A01
K2M2 061555Z AUTO VRB05KT 10SM CLR 26/22 A3003 RMK A01
K2M2 061535Z AUTO 07004KT 10SM CLR 26/22 A3003 RMK A01
K2M2 061515Z AUTO 08004KT 10SM CLR 26/22 A3003 RMK A01
K2M2 061455Z AUTO 08005KT 10SM CLR 26/21 A3003 RMK A01
K2M2 061435Z AUTO 09005KT 10SM CLR 26/21 A3003 RMK A01
K2M2 061415Z AUTO VRB04KT 10SM CLR 26/22 A3003 RMK A01
K2M2 061355Z AUTO 08005KT 10SM CLR 26/22 A3003 RMK A01
K2M2 061335Z AUTO 10003KT 10SM CLR 25/22 A3002 RMK A01
K2M2 061315Z AUTO 10003KT 10SM CLR 24/22 A3002 RMK A01
K2M2 061255Z AUTO 00000KT 10SM FEW065 23/21 A3001 RMK A01
K2M2 061235Z AUTO 00000KT 10SM BKN070 BKN090 22/21 A3002 RMK A01
K2M2 061215Z AUTO 00000KT 10SM BKN070 BKN090 22/21 A3001 RMK A01
K2M2 061155Z AUTO 00000KT 9SM SCT075 21/20 A3001 RMK A01
K2M2 061135Z AUTO 00000KT 6SM BR CLR 20/20 A3000 RMK A01
K2M2 061115Z AUTO 00000KT 4SM BR CLR 20/19 A2999 RMK A01
K2M2 061055Z AUTO 00000KT 4SM BR CLR 20/19 A2999 RMK A01
K2M2 061035Z AUTO 00000KT 9SM CLR 20/19 A2998 RMK A01
K2M2 061015Z AUTO 00000KT 10SM FEW065 20/20 A2997 RMK A01
K2M2 060955Z AUTO 00000KT 10SM FEW055 SCT065 20/20 A2996 RMK A01
K2M2 060935Z AUTO 00000KT 10SM FEW040 FEW050 SCT055 20/20 A2996 RMK A01
K2M2 060915Z AUTO 00000KT 10SM FEW050 SCT055 21/20 A2995 RMK A01
K2M2 060855Z AUTO 00000KT 10SM CLR 20/20 A2995 RMK A01
K2M2 060835Z AUTO 00000KT 10SM FEW060 21/20 A2994 RMK A01
K2M2 060815Z AUTO 00000KT 10SM FEW025 FEW031 SCT060 20/20 A2994 RMK A01
K2M2 060755Z AUTO 00000KT 10SM FEW023 SCT030 BKN041 20/20 A2994 RMK A01
K2M2 060735Z AUTO 00000KT 7SM SCT024 SCT030 SCT040 20/20 A2994 RMK A01
K2M2 060715Z AUTO 00000KT 10SM BKN025 BKN029 BKN039 20/19 A2994 RMK A01
K2M2 060655Z AUTO 00000KT 7SM SCT026 SCT032 BKN050 20/20 A2995 RMK A01
K2M2 060635Z AUTO 00000KT 10SM SCT026 SCT033 BKN050 20/19 A2994 RMK A01
K2M2 060615Z AUTO 00000KT 10SM SCT027 SCT037 BKN050 20/19 A2995 RMK A01
K2M2 060555Z AUTO 00000KT 10SM FEW029 FEW037 SCT050 20/19 A2995 RMK A01
K2M2 060535Z AUTO 36004KT 10SM FEW029 SCT039 BKN050 20/19 A2995 RMK A01
K2M2 060515Z AUTO 00000KT 8SM SCT030 SCT041 BKN055 20/19 A2996 RMK A01
K2M2 060455Z AUTO 00000KT 10SM SCT030 SCT036 BKN050 20/19 A2996 RMK A01
K2M2 060435Z AUTO 00000KT 10SM FEW033 FEW040 BKN055 20/19 A2996 RMK A01
K2M2 060415Z AUTO 00000KT 10SM FEW035 FEW042 OVC055 20/19 A2996 RMK A01
K2M2 060355Z AUTO 00000KT 10SM FEW035 SCT045 OVC055 21/19 A2996 RMK A01
K2M2 060335Z AUTO 07004KT 10SM FEW037 BKN049 BKN055 20/19 A2997 RMK A01
K2M2 060315Z AUTO 00000KT 8SM FEW026 SCT037 BKN050 20/19 A2996 RMK A01
K2M2 060255Z AUTO 00000KT 4SM BR FEW039 SCT047 BKN060 21/19 A2996 RMK A01
K2M2 060235Z AUTO 00000KT 10SM FEW040 SCT047 BKN055 20/19 A2997 RMK A01
K2M2 060215Z AUTO 00000KT 10SM BKN049 BKN055 OVC100 21/19 A2996 RMK A01
K2M2 060155Z AUTO 14003KT 10SM BKN050 BKN070 OVC100 21/19 A2997 RMK A01
K2M2 060135Z AUTO 14008KT 10SM FEW017 SCT045 BKN070 21/19 A2999 RMK A01
K2M2 060115Z AUTO 00000KT 10SM FEW038 FEW044 SCT050 20/19 A2997 RMK A01
K2M2 060055Z AUTO 01003KT 10SM CLR 20/19 A2996 RMK A01
K2M2 060035Z AUTO VRB03KT 10SM FEW050 FEW075 SCT095 20/19 A2998 RMK A01
K2M2 060015Z AUTO 34007G13KT 10SM SCT044 BKN060 OVC100 21/19 A2996 RMK A01
K2M2 052355Z AUTO 02010G16KT 5SM HZ FEW039 SCT048 BKN060 21/18 A2996 RMK A01 P0002
K2M2 052335Z AUTO 09017G23KT 10SM SCT040 BKN047 OVC060 22/19 A2996 RMK A01
K2M2 052315Z AUTO 11013G27KT 070V130 10SM BKN040 BKN046 BKN095 23/18 A2996 RMK A01
K2M2 052255Z AUTO 00000KT 10SM CLR 24/22 A2992 RMK A01
K2M2 052235Z AUTO VRB04KT 10SM CLR 24/22 A2991 RMK A01
K2M2 052215Z AUTO 35005KT 10SM CLR 24/22 A2991 RMK A01
K2M2 052155Z AUTO 00000KT 10SM FEW024 FEW041 FEW047 23/21 A2991 RMK A01 P0001
K2M2 052135Z AUTO VRB05KT 6SM BR SCT041 SCT047 23/21 A2991 RMK A01
K2M2 052115Z AUTO 28005G10KT 10SM FEW038 FEW090 24/22 A2991 RMK A01
K2M2 052055Z AUTO 29003G12KT 3SM BR FEW003 FEW032 SCT038 24/22 A2991 RMK A01 P0050
K2M2 052035Z AUTO VRB04KT 10SM FEW027 FEW038 SCT090 24/22 A2991 RMK A01
K2M2 052015Z AUTO 29007KT 250V320 1/2SM HZ SCT005 BKN027 OVC040 25/21 A2992 RMK A01
K2M2 051955Z AUTO 03005KT 10SM BKN040 30/23 A2992 RMK A01
K2M2 051935Z AUTO 14003KT 10SM BKN040 BKN055 31/23 A2992 RMK A01
K2M2 051915Z AUTO 10003KT 10SM SCT041 BKN049 BKN055 31/22 A2992 RMK A01
K2M2 051855Z AUTO 16003KT 10SM SCT041 SCT048 SCT065 32/21 A2993 RMK A01
K2M2 051835Z AUTO VRB04KT 10SM SCT040 BKN047 BKN050 32/23 A2994 RMK A01
K2M2 051815Z AUTO 16005KT 10SM FEW038 FEW055 SCT070 32/23 A2995 RMK A01
K2M2 051755Z AUTO 17005KT 10SM CLR 32/23 A2996 RMK A01
K2M2 051735Z AUTO 07004KT 10SM CLR 31/23 A2996 RMK A01
K2M2 051715Z AUTO 00000KT 10SM CLR 31/22 A2997 RMK A01
K2M2 051655Z AUTO VRB04KT 10SM CLR 31/23 A2997 RMK A01
K2M2 051635Z AUTO 00000KT 10SM CLR 31/22 A2998 RMK A01
K2M2 051615Z AUTO 00000KT 10SM CLR 30/22 A2998 RMK A01
K2M2 051555Z AUTO 00000KT 10SM CLR 29/23 A2999 RMK A01
K2M2 051535Z AUTO 13004KT 10SM CLR 27/23 A2998 RMK A01
K2M2 051515Z AUTO 12005KT 10SM CLR 27/23 A2998 RMK A01
K2M2 051455Z AUTO 13004KT 10SM CLR 27/23 A2998 RMK A01
K2M2 051435Z AUTO 00000KT 10SM CLR 27/23 A2998 RMK A01
K2M2 051415Z AUTO 00000KT 9SM CLR 26/23 A2998 RMK A01
K2M2 051355Z AUTO 00000KT 8SM CLR 26/23 A2998 RMK A01
K2M2 051335Z AUTO 00000KT 9SM CLR 25/23 A2998 RMK A01
K2M2 051315Z AUTO 00000KT 9SM FEW120 26/23 A2998 RMK A01
K2M2 051255Z AUTO 00000KT 9SM CLR 24/23 A2997 RMK A01
K2M2 051235Z AUTO 14003KT 10SM CLR 24/22 A2997 RMK A01
K2M2 051215Z AUTO 00000KT 9SM CLR 24/22 A2996 RMK A01
K2M2 051155Z AUTO 00000KT 10SM CLR 23/22 A2995 RMK A01
K2M2 051135Z AUTO 00000KT 9SM CLR 22/22 A2995 RMK A01
K2M2 051115Z AUTO 00000KT 8SM CLR 22/21 A2995 RMK A01
K2M2 051055Z AUTO 00000KT 10SM CLR 22/21 A2994 RMK A01
K2M2 051035Z AUTO 00000KT 9SM CLR 22/21 A2994 RMK A01
K2M2 051015Z AUTO 00000KT 10SM FEW027 22/21 A2993 RMK A01
K2M2 050955Z AUTO 00000KT 10SM SCT028 SCT038 22/21 A2993 RMK A01
K2M2 050935Z AUTO 00000KT 10SM BKN028 22/21 A2992 RMK A01
K2M2 050915Z AUTO 00000KT 10SM SCT028 SCT047 22/21 A2992 RMK A01
K2M2 050855Z AUTO 00000KT 10SM SCT030 BKN045 22/21 A2992 RMK A01
K2M2 050835Z AUTO 00000KT 8SM BKN031 BKN046 22/21 A2991 RMK A01
K2M2 050815Z AUTO 00000KT 9SM SCT031 BKN120 22/22 A2992 RMK A01
K2M2 050755Z AUTO 00000KT 10SM FEW025 SCT031 BKN120 22/21 A2991 RMK A01
K2M2 050735Z AUTO 00000KT 9SM FEW025 FEW030 SCT049 22/21 A2991 RMK A01
K2M2 050715Z AUTO 00000KT 10SM FEW047 FEW055 22/21 A2991 RMK A01
K2M2 050655Z AUTO 00000KT 10SM CLR 22/21 A2991 RMK A01
K2M2 050635Z AUTO 00000KT 10SM FEW027 FEW032 SCT048 22/21 A2991 RMK A01